Impacts TAF Board INFO
FOR SITUATIONAL AWARENESS. NOT TO BE USED FOR FLIGHT PLANNING PURPOSES.
IDs:

KJFK - New York/Kennedy Int, NY, US

Issued at 2033 UTC 21 Jan 2018
Updated at 2224 UTC 21 Jan 2018
Potential Impact None Slight Moderate High
Time2151Z 21/23Z 22/00Z 22/01Z 22/02Z 22/03Z 22/04Z 22/05Z 22/06Z 22/07Z 22/08Z 22/09Z 22/10Z 22/11Z>>
Type OBS PRVL PRVL PRVL PRVL PRVL PRVL PRVL PRVL PRVL PRVL PRVL PRVL PRVL
VIS 10 >6 >6 >6 >6 >6 >6 >6 >6 >6 >6 >6 >6 >6
CIG 250 40 40 40 40 25 25 25 25 12 12 12 12 12
Cover BKN BKN BKN BKN BKN BKN BKN BKN BKN BKN BKN BKN BKN BKN
FltCat VFR VFR VFR VFR VFR MVFR MVFR MVFR MVFR MVFR MVFR MVFR MVFR MVFR
WX -- -- -- -- -- -- -- -- -- VCSH VCSH VCSH VCSH VCSH
WDir 200 230 230 230 230 230 230 230 230 VRB VRB VRB VRB VRB
WSpd 4 5 5 5 5 4 4 4 4 3 3 3 3 3
WGst -- -- -- -- -- -- -- -- -- -- -- -- -- --

Raw TAF
KJFK 212033Z 2121/2224 26006KT P6SM FEW250
  FM212200 23005KT P6SM BKN040
  FM220300 23004KT P6SM BKN025
  FM220700 VRB03KT P6SM VCSH BKN012 BKN025
  FM221200 16003KT 4SM -DZ BR BKN008 OVC025
  FM221700 16004KT 4SM BR BKN015 OVC025
  FM222300 13004KT P6SM BKN050


Raw METAR
KJFK 212151Z 20004KT 10SM FEW065 BKN250 07/00 A3016 RMK AO2 SLP212 T00720000
KJFK 212051Z 21006KT 10SM SCT065 BKN250 09/M01 A3015 RMK AO2 SLP209 T00941006 55002
KJFK 211951Z 22007KT 10SM R04R/5000VP6000FT BKN250 10/M01 A3015 RMK AO2 SLP208 T01001006

METAR Board
Radar Display
Forecast Discussion

FOR SITUATIONAL AWARENESS. NOT TO BE USED FOR FLIGHT PLANNING PURPOSES.